Sidney, NE (69160)

11:08 PM MST on February 22, 2017 (GMT -0700)
Fort Sidney Rd | | Change Station
Active Advisory: Winter Storm Warning

Elev 4242 ft 41.12 °N, 102.97 °W | Updated 19 seconds ago

Mostly Cloudy
Mostly Cloudy
37.2 °F
Feels Like 30 °F
N
11.0
Wind Variable Wind from NE

Today
High -- | Low -- °F
--% Chance of Precip.
Yesterday
High -- | Low -- °F
Precip. -- in
Pressure 29.73 in
Visibility 10.0 miles
Clouds Mostly Cloudy 9000 ft
Windchill 30 °F
Dew Point 29 °F
Humidity 74%
Rainfall 0.00 in
Snow Depth Not available.
6:36 AM 5:35 PM
Waning Crescent, 12% visible
METAR KSNY 230553Z AUTO 04013KT 10SM BKN090 03/M03 A2976 RMK AO2 SLP066 T00331028 10111 20033 58004
Pressure 29.73 in
Visibility 10.0 miles
Clouds Mostly Cloudy 9000 ft
Windchill 30 °F
Dew Point 29 °F
Humidity 74%
Rainfall 0.00 in
Snow Depth Not available.
6:36 AM 5:35 PM
Waning Crescent, 12% visible
METAR KSNY 230553Z AUTO 04013KT 10SM BKN090 03/M03 A2976 RMK AO2 SLP066 T00331028 10111 20033 58004

Get Your Daily Forecast Email!

Thanks for signing up!

Be on the lookout for a verification email in your inbox.

You'll start receiving the daily forecast at 8 AM.

×

10-Day Weather Forecast

Almanac

Astronomy

Feb. 22, 2017 Rise Set
Actual Time
Civil Twilight
Nautical Twilight
Astronomical Twilight
Moon
Length of Visible Light
Length of Day
Tomorrow will be .
, % of the Moon is Illuminated

Today's Extremes

State Highs State Lows

Community

WunderPhotos

Upload Photos

1,962,540 photos uploaded!

WunderBlog® & News

Nearby

Air Quality

  Air Quality AQ Index Pollutant
Not available.

Snow Depth

Station Depth Elevation

Earthquake Activity

City Distance Mag. Time & Date
Minimum magnitude displayed is 2.5.

Coastal Water Temperatures

Place Temperature

Stations

Nearby Weather Stations

Station Location Temp. Windchill Dew Point Humidity Wind Precip. Elev Updated Type
                   

Watches & Warnings

Winter Storm Warning
Issued: 9:28 PM MST Feb. 22, 2017 – National Weather Service

... Winter Storm Warning remains in effect from 5 am Thursday to
11 am MST Friday...

* timing... snow will begin by Thursday morning and continue
through Friday morning. The snow may be heavy at times on
Thursday morning through the afternoon.

* Total snow accumulations... 4 to 8 inches with locally higher
amounts possible.

* Winds/visibility... north to northeast winds 15 to 25 mph with
gusts up to 30 mph. Visibilities will be reduced to under one
half mile at times in falling and blowing snow.

* Impacts... mainly to transportation. Icy and snow packed roads
and low visibilities could lead to dangerous or impossible
travel conditions.

Precautionary/preparedness actions...

A Winter Storm Warning for heavy snow means severe winter weather
conditions are expected or occurring. Significant amounts of
snow are forecast that will make travel dangerous. Only travel in
an emergency. If you must travel... keep an extra flashlight...
food... and water in your vehicle in case of an emergency.